createdAt,value
2023-05-07T00:04:51.867Z,80.84
2023-05-07T00:09:52.879Z,80.07
2023-05-07T00:14:54.136Z,80.78
2023-05-07T00:19:55.343Z,80.98
2023-05-07T00:24:56.691Z,80.47
2023-05-07T00:29:58.721Z,79.77
2023-05-07T00:34:57.748Z,80.07
2023-05-07T00:39:58.771Z,80.07
2023-05-07T00:44:59.813Z,80.92
2023-05-07T00:50:01.834Z,81.02
2023-05-07T00:55:01.884Z,80.62
2023-05-07T01:00:01.047Z,79.91
2023-05-07T01:05:02.073Z,79.91
2023-05-07T01:10:01.838Z,80.11
2023-05-07T01:15:03.042Z,80.41
2023-05-07T01:20:04.224Z,80.01
2023-05-07T01:25:05.266Z,80.01
2023-05-07T01:30:07.339Z,79.80
2023-05-07T01:35:06.578Z,80.11
2023-05-07T01:40:07.652Z,80.01
2023-05-07T01:45:08.743Z,79.50
2023-05-07T01:50:10.198Z,79.94
2023-05-07T01:55:09.685Z,79.85
2023-05-07T02:00:11.976Z,79.34
2023-05-07T02:05:11.361Z,79.54
2023-05-07T02:10:12.672Z,79.54
2023-05-07T02:15:12.080Z,79.74
2023-05-07T02:20:13.240Z,80.08
2023-05-07T02:25:15.258Z,80.29
2023-05-07T02:30:13.317Z,79.88
2023-05-07T02:35:15.349Z,80.08
2023-05-07T02:40:14.572Z,80.08
2023-05-07T02:45:15.689Z,80.19
2023-05-07T02:50:16.828Z,79.88
2023-05-07T02:55:17.905Z,79.82
2023-05-07T03:00:18.935Z,79.82
2023-05-07T03:05:20.052Z,80.02
2023-05-07T03:10:21.198Z,80.22
2023-05-07T03:15:22.472Z,80.26
2023-05-07T03:20:23.556Z,80.46
2023-05-07T03:25:24.691Z,80.66
2023-05-07T03:30:26.734Z,80.02
2023-05-07T03:35:25.805Z,80.02
2023-05-07T03:40:27.843Z,79.72
2023-05-07T03:45:27.896Z,79.65
2023-05-07T03:50:27.031Z,79.65
2023-05-07T03:55:28.176Z,79.55
2023-05-07T04:00:29.194Z,79.55
2023-05-07T04:05:30.321Z,79.25
2023-05-07T04:10:32.350Z,78.91
2023-05-07T04:15:36.279Z,77.69
2023-05-07T04:20:31.431Z,77.65
2023-05-07T04:25:32.452Z,77.65
2023-05-07T04:30:33.577Z,77.65
2023-05-07T04:35:34.779Z,77.45
2023-05-07T04:40:35.939Z,76.90
2023-05-07T04:45:37.138Z,77.11
2023-05-07T04:50:38.158Z,76.67
2023-05-07T04:55:39.288Z,75.21
2023-05-07T05:00:41.316Z,75.21
2023-05-07T05:05:41.349Z,74.87
2023-05-07T05:10:40.464Z,74.13
2023-05-07T05:15:41.674Z,73.93
2023-05-07T05:20:42.839Z,74.54
2023-05-07T05:25:43.835Z,74.70
2023-05-07T05:30:44.857Z,73.28
2023-05-07T05:35:46.105Z,72.99
2023-05-07T05:40:48.137Z,73.19
2023-05-07T05:45:47.155Z,72.95
2023-05-07T05:50:49.190Z,71.77
2023-05-07T05:55:48.321Z,70.12
2023-05-07T06:00:49.612Z,70.29
2023-05-07T06:05:50.789Z,69.68
2023-05-07T06:10:52.827Z,69.55
2023-05-07T06:15:53.869Z,68.74
2023-05-07T06:20:53.913Z,69.55
2023-05-07T06:25:53.983Z,69.12
2023-05-07T06:30:53.125Z,67.97
2023-05-07T06:35:54.305Z,68.38
2023-05-07T06:40:55.484Z,68.04
2023-05-07T06:45:56.722Z,67.24
2023-05-07T06:50:57.735Z,68.28
2023-05-07T06:55:58.777Z,69.38
2023-05-07T07:01:00.846Z,68.35
2023-05-07T07:06:00.000Z,68.85
2023-05-07T07:11:00.999Z,68.01
2023-05-07T07:16:02.207Z,66.60
2023-05-07T07:21:03.219Z,66.97
2023-05-07T07:26:04.252Z,65.91
2023-05-07T07:31:06.485Z,66.64
2023-05-07T07:36:05.679Z,67.38
2023-05-07T07:41:06.875Z,67.78
2023-05-07T07:46:07.867Z,66.07
2023-05-07T07:51:09.913Z,66.41
2023-05-07T07:56:08.941Z,65.74
2023-05-07T08:01:10.964Z,65.04
2023-05-07T08:06:10.147Z,64.91
2023-05-07T08:11:11.308Z,62.97
2023-05-07T08:16:13.335Z,64.12
2023-05-07T08:21:12.359Z,64.12
2023-05-07T08:26:13.488Z,63.39
2023-05-07T08:31:15.539Z,61.35
2023-05-07T08:36:15.569Z,60.89
2023-05-07T08:41:14.730Z,63.39
2023-05-07T08:46:15.755Z,62.19
2023-05-07T08:51:16.800Z,61.29
2023-05-07T08:56:20.389Z,61.99
2023-05-07T09:01:18.712Z,62.82
2023-05-07T09:06:19.832Z,63.33
2023-05-07T09:11:21.860Z,60.17
2023-05-07T09:16:19.963Z,60.35
2023-05-07T09:21:21.980Z,57.90
2023-05-07T09:26:21.036Z,56.98
2023-05-07T09:31:22.112Z,58.83
2023-05-07T09:36:23.175Z,56.70
2023-05-07T09:41:24.296Z,56.08
2023-05-07T09:46:25.426Z,58.24
2023-05-07T09:51:26.505Z,56.00
2023-05-07T09:56:30.641Z,57.42
2023-05-07T10:01:27.862Z,58.31
2023-05-07T10:06:28.992Z,58.45
2023-05-07T10:11:30.132Z,56.59
2023-05-07T10:16:31.383Z,54.72
2023-05-07T10:21:32.530Z,53.91
2023-05-07T10:26:33.642Z,53.31
2023-05-07T10:31:34.767Z,56.67
2023-05-07T10:36:38.256Z,56.44
2023-05-07T10:41:35.488Z,54.16
2023-05-07T10:46:36.780Z,54.63
2023-05-07T10:51:37.825Z,54.28
2023-05-07T10:56:40.000Z,53.16
2023-05-07T11:01:39.252Z,52.42
2023-05-07T11:06:42.309Z,54.18
2023-05-07T11:11:41.469Z,53.78
2023-05-07T11:16:42.588Z,55.71
2023-05-07T11:21:43.611Z,57.82
2023-05-07T11:26:44.739Z,57.82
2023-05-07T11:31:45.819Z,59.31
2023-05-07T11:36:46.912Z,59.95
2023-05-07T11:41:47.980Z,56.33
2023-05-07T11:46:50.077Z,56.18
2023-05-07T11:51:49.098Z,54.41
2023-05-07T11:56:50.345Z,55.93
2023-05-07T12:01:51.564Z,55.43
2023-05-07T12:06:53.920Z,55.08
2023-05-07T12:11:53.094Z,54.56
2023-05-07T12:16:55.158Z,55.48
2023-05-07T12:21:54.309Z,57.28
2023-05-07T12:26:55.359Z,57.43
2023-05-07T12:31:56.452Z,56.56
2023-05-07T12:36:57.508Z,56.88
2023-05-07T12:41:58.708Z,58.10
2023-05-07T12:46:59.767Z,54.79
2023-05-07T12:52:01.954Z,54.49
2023-05-07T12:57:01.167Z,54.03
2023-05-07T13:02:04.344Z,57.64
2023-05-07T13:07:03.453Z,58.71
2023-05-07T13:12:04.519Z,57.89
2023-05-07T13:17:05.582Z,53.69
2023-05-07T13:22:07.637Z,56.20
2023-05-07T13:27:06.689Z,57.94
2023-05-07T13:32:08.146Z,57.82
2023-05-07T13:37:11.404Z,59.08
2023-05-07T13:42:08.691Z,60.30
2023-05-07T13:48:29.625Z,60.80
2023-05-07T13:52:11.644Z,61.30
2023-05-07T13:57:10.701Z,61.63
2023-05-07T14:02:11.807Z,60.36
2023-05-07T14:07:14.834Z,60.09
2023-05-07T14:12:13.879Z,60.12
2023-05-07T14:17:15.100Z,60.32
2023-05-07T14:22:17.164Z,58.87
2023-05-07T14:27:16.254Z,61.36
2023-05-07T14:32:18.339Z,59.86
2023-05-07T14:37:17.393Z,59.09
2023-05-07T14:42:19.558Z,60.22
2023-05-07T14:47:19.997Z,61.18
2023-05-07T14:52:19.217Z,65.23
2023-05-07T14:57:20.574Z,66.02
2023-05-07T15:02:21.733Z,66.52
2023-05-07T15:07:22.928Z,66.63
2023-05-07T15:12:23.946Z,66.55
2023-05-07T15:17:26.045Z,67.66
2023-05-07T15:22:25.074Z,67.99
2023-05-07T15:27:26.241Z,68.79
2023-05-07T15:32:31.882Z,67.89
2023-05-07T15:37:28.200Z,68.59
2023-05-07T15:42:27.600Z,69.62
2023-05-07T15:47:29.185Z,68.82
2023-05-07T15:52:28.664Z,69.62
2023-05-07T15:57:28.121Z,72.77
2023-05-07T16:02:27.678Z,75.21
2023-05-07T16:07:27.218Z,76.09
2023-05-07T16:12:27.206Z,77.09
2023-05-07T16:17:27.798Z,77.20
2023-05-07T16:22:28.234Z,77.73
2023-05-07T16:27:27.712Z,80.43
2023-05-07T16:32:27.226Z,84.57
2023-05-07T16:37:25.696Z,87.27
2023-05-07T16:42:28.198Z,88.18
2023-05-07T16:47:28.754Z,89.15
2023-05-07T16:52:29.256Z,87.68
2023-05-07T16:57:29.153Z,92.02
2023-05-07T17:02:28.738Z,87.74
2023-05-07T17:07:29.314Z,86.18
2023-05-07T17:12:29.801Z,83.48
2023-05-07T17:17:29.358Z,83.12
2023-05-07T17:22:28.957Z,83.56
2023-05-07T17:27:28.660Z,82.04
2023-05-07T17:32:28.177Z,81.77
2023-05-07T17:37:28.683Z,82.62
2023-05-07T17:42:28.197Z,83.26
2023-05-07T17:47:27.742Z,83.32
2023-05-07T17:52:27.274Z,84.61
2023-05-07T17:57:27.816Z,86.27
2023-05-07T18:02:28.423Z,86.71
2023-05-07T18:07:29.983Z,91.24
2023-05-07T18:12:27.893Z,93.35
2023-05-07T18:17:27.415Z,95.42
2023-05-07T18:22:27.122Z,95.42
2023-05-07T18:27:28.677Z,97.08
2023-05-07T18:32:28.218Z,98.65
2023-05-07T18:37:27.884Z,99.35
2023-05-07T18:42:27.385Z,99.99
2023-05-07T18:47:27.028Z,99.19
2023-05-07T18:52:26.688Z,99.66
2023-05-07T18:57:26.262Z,98.69
2023-05-07T19:02:28.323Z,99.30
2023-05-07T19:07:24.883Z,99.19
2023-05-07T19:12:26.381Z,99.44
2023-05-07T19:17:25.963Z,99.99
2023-05-07T19:22:26.466Z,99.99
2023-05-07T19:27:27.074Z,99.99
2023-05-07T19:32:26.562Z,99.99
2023-05-07T19:37:27.041Z,99.99
2023-05-07T19:42:26.611Z,99.99
2023-05-07T19:47:26.253Z,99.99
2023-05-07T19:52:25.828Z,99.99
2023-05-07T19:57:25.463Z,99.99
2023-05-07T20:02:25.234Z,99.99
2023-05-07T20:07:25.746Z,99.99
2023-05-07T20:12:26.267Z,99.99
2023-05-07T20:17:25.978Z,99.99
2023-05-07T20:22:26.480Z,99.99
2023-05-07T20:27:26.644Z,99.99
2023-05-07T20:32:27.139Z,99.99
2023-05-07T20:37:27.602Z,99.99
2023-05-07T20:42:28.073Z,99.99
2023-05-07T20:47:46.592Z,99.99
2023-05-07T20:52:27.916Z,99.99
2023-05-07T20:57:29.100Z,99.99
2023-05-07T21:02:30.246Z,99.99
2023-05-07T21:07:31.429Z,99.99
2023-05-07T21:12:32.448Z,99.99
2023-05-07T21:17:34.585Z,99.99
2023-05-07T21:22:33.648Z,99.99
2023-05-07T21:27:36.746Z,99.99
2023-05-07T21:32:36.823Z,99.99
2023-05-07T21:37:36.884Z,99.99
2023-05-07T21:42:36.032Z,99.99
2023-05-07T21:47:37.332Z,99.99
2023-05-07T21:52:38.382Z,99.99
2023-05-07T21:57:40.778Z,99.99
2023-05-07T22:02:41.940Z,99.99
2023-05-07T22:07:40.968Z,99.99
2023-05-07T22:12:42.101Z,99.99
2023-05-07T22:17:43.229Z,99.99
2023-05-07T22:22:44.232Z,99.99
2023-05-07T22:27:45.753Z,99.99
2023-05-07T22:32:45.028Z,99.99
2023-05-07T22:37:47.051Z,99.99
2023-05-07T22:42:47.070Z,99.99
2023-05-07T22:47:46.131Z,99.99
2023-05-07T22:52:47.156Z,99.99
2023-05-07T22:57:48.206Z,99.99
2023-05-07T23:02:49.334Z,99.99
2023-05-07T23:07:50.428Z,99.99
2023-05-07T23:12:52.540Z,99.99
2023-05-07T23:17:52.719Z,99.99
2023-05-07T23:22:53.905Z,99.99
2023-05-07T23:27:54.028Z,99.99
2023-05-07T23:32:53.170Z,99.99
2023-05-07T23:37:54.185Z,99.99
2023-05-07T23:42:55.379Z,99.99
2023-05-07T23:47:57.612Z,99.99
2023-05-07T23:52:56.747Z,99.99
2023-05-07T23:57:57.849Z,99.99
